sensor_id;sensor_type;location;lat;lon;timestamp;temperature;humidity
26107;DHT22;13866;50.748;12.630;2023-09-07T00:00:46;13.20;99.90
26107;DHT22;13866;50.748;12.630;2023-09-07T00:03:13;13.20;99.90
26107;DHT22;13866;50.748;12.630;2023-09-07T00:05:39;13.00;99.90
26107;DHT22;13866;50.748;12.630;2023-09-07T00:08:04;13.00;99.90
26107;DHT22;13866;50.748;12.630;2023-09-07T00:10:31;13.00;99.90
26107;DHT22;13866;50.748;12.630;2023-09-07T00:12:57;13.10;99.90
26107;DHT22;13866;50.748;12.630;2023-09-07T00:15:23;13.10;99.90
26107;DHT22;13866;50.748;12.630;2023-09-07T00:17:48;13.00;99.90
26107;DHT22;13866;50.748;12.630;2023-09-07T00:20:16;13.00;99.90
26107;DHT22;13866;50.748;12.630;2023-09-07T00:22:42;13.00;99.90
26107;DHT22;13866;50.748;12.630;2023-09-07T00:25:08;13.00;99.90
26107;DHT22;13866;50.748;12.630;2023-09-07T00:27:34;13.00;99.90
26107;DHT22;13866;50.748;12.630;2023-09-07T00:30:00;12.90;99.90
26107;DHT22;13866;50.748;12.630;2023-09-07T00:32:25;12.80;99.90
26107;DHT22;13866;50.748;12.630;2023-09-07T00:34:51;12.70;99.90
26107;DHT22;13866;50.748;12.630;2023-09-07T00:37:16;12.80;99.90
26107;DHT22;13866;50.748;12.630;2023-09-07T00:39:42;12.70;99.90
26107;DHT22;13866;50.748;12.630;2023-09-07T00:42:07;12.60;99.90
26107;DHT22;13866;50.748;12.630;2023-09-07T00:44:33;12.70;99.90
26107;DHT22;13866;50.748;12.630;2023-09-07T00:46:58;12.80;99.90
26107;DHT22;13866;50.748;12.630;2023-09-07T00:49:24;12.80;99.90
26107;DHT22;13866;50.748;12.630;2023-09-07T00:51:51;12.80;99.90
26107;DHT22;13866;50.748;12.630;2023-09-07T00:54:17;12.80;99.90
26107;DHT22;13866;50.748;12.630;2023-09-07T00:56:43;12.70;99.90
26107;DHT22;13866;50.748;12.630;2023-09-07T00:59:09;12.60;99.90
26107;DHT22;13866;50.748;12.630;2023-09-07T01:01:36;12.60;99.90
26107;DHT22;13866;50.748;12.630;2023-09-07T01:04:02;12.60;99.90
26107;DHT22;13866;50.748;12.630;2023-09-07T01:06:39;12.80;99.90
26107;DHT22;13866;50.748;12.630;2023-09-07T01:09:19;12.90;99.90
26107;DHT22;13866;50.748;12.630;2023-09-07T01:11:45;13.00;99.90
26107;DHT22;13866;50.748;12.630;2023-09-07T01:14:10;13.00;99.90
26107;DHT22;13866;50.748;12.630;2023-09-07T01:16:36;12.90;99.90
26107;DHT22;13866;50.748;12.630;2023-09-07T01:19:06;13.00;99.90
26107;DHT22;13866;50.748;12.630;2023-09-07T01:21:36;13.00;99.90
26107;DHT22;13866;50.748;12.630;2023-09-07T01:24:06;13.00;99.90
26107;DHT22;13866;50.748;12.630;2023-09-07T01:26:32;13.10;99.90
26107;DHT22;13866;50.748;12.630;2023-09-07T01:28:57;13.10;99.90
26107;DHT22;13866;50.748;12.630;2023-09-07T01:31:23;13.00;99.90
26107;DHT22;13866;50.748;12.630;2023-09-07T01:33:48;13.00;99.90
26107;DHT22;13866;50.748;12.630;2023-09-07T01:36:14;13.00;99.90
26107;DHT22;13866;50.748;12.630;2023-09-07T01:38:39;13.00;99.90
26107;DHT22;13866;50.748;12.630;2023-09-07T01:41:05;12.90;99.90
26107;DHT22;13866;50.748;12.630;2023-09-07T01:43:31;12.90;99.90
26107;DHT22;13866;50.748;12.630;2023-09-07T01:45:56;12.90;99.90
26107;DHT22;13866;50.748;12.630;2023-09-07T01:48:21;12.90;99.90
26107;DHT22;13866;50.748;12.630;2023-09-07T01:50:47;12.80;99.90
26107;DHT22;13866;50.748;12.630;2023-09-07T01:53:16;12.90;99.90
26107;DHT22;13866;50.748;12.630;2023-09-07T01:55:42;12.90;99.90
26107;DHT22;13866;50.748;12.630;2023-09-07T01:58:07;12.90;99.90
26107;DHT22;13866;50.748;12.630;2023-09-07T02:00:37;12.90;99.90
26107;DHT22;13866;50.748;12.630;2023-09-07T02:03:03;12.80;99.90
26107;DHT22;13866;50.748;12.630;2023-09-07T02:05:28;12.80;99.90
26107;DHT22;13866;50.748;12.630;2023-09-07T02:07:54;12.70;99.90
26107;DHT22;13866;50.748;12.630;2023-09-07T02:10:19;12.70;99.90
26107;DHT22;13866;50.748;12.630;2023-09-07T02:12:45;12.60;99.90
26107;DHT22;13866;50.748;12.630;2023-09-07T02:15:11;12.60;99.90
26107;DHT22;13866;50.748;12.630;2023-09-07T02:17:37;12.60;99.90
26107;DHT22;13866;50.748;12.630;2023-09-07T02:20:02;12.70;99.90
26107;DHT22;13866;50.748;12.630;2023-09-07T02:22:33;12.60;99.90
26107;DHT22;13866;50.748;12.630;2023-09-07T02:24:59;12.60;99.90
26107;DHT22;13866;50.748;12.630;2023-09-07T02:27:24;12.60;99.90
26107;DHT22;13866;50.748;12.630;2023-09-07T02:29:50;12.60;99.90
26107;DHT22;13866;50.748;12.630;2023-09-07T02:32:15;12.60;99.90
26107;DHT22;13866;50.748;12.630;2023-09-07T02:34:41;12.50;99.90
26107;DHT22;13866;50.748;12.630;2023-09-07T02:37:07;12.60;99.90
26107;DHT22;13866;50.748;12.630;2023-09-07T02:39:33;12.70;99.90
26107;DHT22;13866;50.748;12.630;2023-09-07T02:41:59;12.70;99.90
26107;DHT22;13866;50.748;12.630;2023-09-07T02:44:24;12.70;99.90
26107;DHT22;13866;50.748;12.630;2023-09-07T02:46:50;12.70;99.90
26107;DHT22;13866;50.748;12.630;2023-09-07T02:49:15;12.70;99.90
26107;DHT22;13866;50.748;12.630;2023-09-07T02:51:41;12.60;99.90
26107;DHT22;13866;50.748;12.630;2023-09-07T02:54:06;12.50;99.90
26107;DHT22;13866;50.748;12.630;2023-09-07T02:56:32;12.40;99.90
26107;DHT22;13866;50.748;12.630;2023-09-07T02:58:57;12.40;99.90
26107;DHT22;13866;50.748;12.630;2023-09-07T03:01:23;12.40;99.90
26107;DHT22;13866;50.748;12.630;2023-09-07T03:03:48;12.40;99.90
26107;DHT22;13866;50.748;12.630;2023-09-07T03:06:15;12.40;99.90
26107;DHT22;13866;50.748;12.630;2023-09-07T03:08:42;12.40;99.90
26107;DHT22;13866;50.748;12.630;2023-09-07T03:11:08;12.40;99.90
26107;DHT22;13866;50.748;12.630;2023-09-07T03:13:35;12.50;99.90
26107;DHT22;13866;50.748;12.630;2023-09-07T03:16:01;12.40;99.90
26107;DHT22;13866;50.748;12.630;2023-09-07T03:18:27;12.40;99.90
26107;DHT22;13866;50.748;12.630;2023-09-07T03:20:54;12.50;99.90
26107;DHT22;13866;50.748;12.630;2023-09-07T03:23:21;12.50;99.90
26107;DHT22;13866;50.748;12.630;2023-09-07T03:25:47;12.40;99.90
26107;DHT22;13866;50.748;12.630;2023-09-07T03:28:12;12.30;99.90
26107;DHT22;13866;50.748;12.630;2023-09-07T03:30:38;12.30;99.90
26107;DHT22;13866;50.748;12.630;2023-09-07T03:33:04;12.30;99.90
26107;DHT22;13866;50.748;12.630;2023-09-07T03:35:31;12.20;99.90
26107;DHT22;13866;50.748;12.630;2023-09-07T03:37:56;12.20;99.90
26107;DHT22;13866;50.748;12.630;2023-09-07T03:40:22;12.20;99.90
26107;DHT22;13866;50.748;12.630;2023-09-07T03:42:47;12.40;99.90
26107;DHT22;13866;50.748;12.630;2023-09-07T03:45:13;12.40;99.90
26107;DHT22;13866;50.748;12.630;2023-09-07T03:47:38;12.40;99.90
26107;DHT22;13866;50.748;12.630;2023-09-07T03:50:05;12.40;99.90
26107;DHT22;13866;50.748;12.630;2023-09-07T03:52:31;12.40;99.90
26107;DHT22;13866;50.748;12.630;2023-09-07T03:54:57;12.50;99.90
26107;DHT22;13866;50.748;12.630;2023-09-07T03:57:24;12.50;99.90
26107;DHT22;13866;50.748;12.630;2023-09-07T03:59:50;12.40;99.90
26107;DHT22;13866;50.748;12.630;2023-09-07T04:02:16;12.40;99.90
26107;DHT22;13866;50.748;12.630;2023-09-07T04:04:43;12.50;99.90
26107;DHT22;13866;50.748;12.630;2023-09-07T04:07:08;12.50;99.90
26107;DHT22;13866;50.748;12.630;2023-09-07T04:09:35;12.50;99.90
26107;DHT22;13866;50.748;12.630;2023-09-07T04:12:00;12.50;99.90
26107;DHT22;13866;50.748;12.630;2023-09-07T04:14:26;12.50;99.90
26107;DHT22;13866;50.748;12.630;2023-09-07T04:16:53;12.50;99.90
26107;DHT22;13866;50.748;12.630;2023-09-07T04:19:19;12.50;99.90
26107;DHT22;13866;50.748;12.630;2023-09-07T04:21:44;12.50;99.90
26107;DHT22;13866;50.748;12.630;2023-09-07T04:24:10;12.50;99.90
26107;DHT22;13866;50.748;12.630;2023-09-07T04:26:37;12.50;99.90
26107;DHT22;13866;50.748;12.630;2023-09-07T04:29:03;12.50;99.90
26107;DHT22;13866;50.748;12.630;2023-09-07T04:31:28;12.50;99.90
26107;DHT22;13866;50.748;12.630;2023-09-07T04:33:54;12.50;99.90
26107;DHT22;13866;50.748;12.630;2023-09-07T04:36:19;12.40;99.90
26107;DHT22;13866;50.748;12.630;2023-09-07T04:38:45;12.40;99.90
26107;DHT22;13866;50.748;12.630;2023-09-07T04:41:12;12.40;99.90
26107;DHT22;13866;50.748;12.630;2023-09-07T04:43:39;12.50;99.90
26107;DHT22;13866;50.748;12.630;2023-09-07T04:46:12;12.50;99.90
26107;DHT22;13866;50.748;12.630;2023-09-07T04:48:38;12.50;99.90
26107;DHT22;13866;50.748;12.630;2023-09-07T04:51:06;12.50;99.90
26107;DHT22;13866;50.748;12.630;2023-09-07T04:53:33;12.60;99.90
26107;DHT22;13866;50.748;12.630;2023-09-07T04:56:01;12.60;99.90
26107;DHT22;13866;50.748;12.630;2023-09-07T04:58:27;12.60;99.90
26107;DHT22;13866;50.748;12.630;2023-09-07T05:00:52;12.40;99.90
26107;DHT22;13866;50.748;12.630;2023-09-07T05:03:18;12.40;99.90
26107;DHT22;13866;50.748;12.630;2023-09-07T05:05:44;12.30;99.90
26107;DHT22;13866;50.748;12.630;2023-09-07T05:08:10;12.40;99.90
26107;DHT22;13866;50.748;12.630;2023-09-07T05:10:36;12.40;99.90
26107;DHT22;13866;50.748;12.630;2023-09-07T05:13:02;12.50;99.90
26107;DHT22;13866;50.748;12.630;2023-09-07T05:15:28;12.60;99.90
26107;DHT22;13866;50.748;12.630;2023-09-07T05:17:53;12.80;99.90
26107;DHT22;13866;50.748;12.630;2023-09-07T05:20:19;13.00;99.90
26107;DHT22;13866;50.748;12.630;2023-09-07T05:22:45;13.30;99.90
26107;DHT22;13866;50.748;12.630;2023-09-07T05:25:11;13.60;99.90
26107;DHT22;13866;50.748;12.630;2023-09-07T05:27:37;14.00;99.90
26107;DHT22;13866;50.748;12.630;2023-09-07T05:30:04;14.30;99.90
26107;DHT22;13866;50.748;12.630;2023-09-07T05:32:30;14.60;99.90
26107;DHT22;13866;50.748;12.630;2023-09-07T05:34:55;14.80;99.90
26107;DHT22;13866;50.748;12.630;2023-09-07T05:37:21;15.10;99.90
26107;DHT22;13866;50.748;12.630;2023-09-07T05:39:46;15.30;99.90
26107;DHT22;13866;50.748;12.630;2023-09-07T05:42:12;15.60;99.90
26107;DHT22;13866;50.748;12.630;2023-09-07T05:44:38;15.90;99.90
26107;DHT22;13866;50.748;12.630;2023-09-07T05:47:04;16.10;99.90
26107;DHT22;13866;50.748;12.630;2023-09-07T05:49:29;16.40;99.90
26107;DHT22;13866;50.748;12.630;2023-09-07T05:51:55;16.60;99.90
26107;DHT22;13866;50.748;12.630;2023-09-07T05:54:21;16.80;99.90
26107;DHT22;13866;50.748;12.630;2023-09-07T05:56:46;17.00;99.90
26107;DHT22;13866;50.748;12.630;2023-09-07T05:59:12;17.20;99.90
26107;DHT22;13866;50.748;12.630;2023-09-07T06:01:38;17.40;99.90
26107;DHT22;13866;50.748;12.630;2023-09-07T06:04:04;17.50;99.90
26107;DHT22;13866;50.748;12.630;2023-09-07T06:06:30;17.70;99.90
26107;DHT22;13866;50.748;12.630;2023-09-07T06:08:56;17.90;99.90
26107;DHT22;13866;50.748;12.630;2023-09-07T06:11:21;18.10;99.90
26107;DHT22;13866;50.748;12.630;2023-09-07T06:13:47;18.20;98.10
26107;DHT22;13866;50.748;12.630;2023-09-07T06:16:12;18.50;94.10
26107;DHT22;13866;50.748;12.630;2023-09-07T06:18:38;18.40;88.70
26107;DHT22;13866;50.748;12.630;2023-09-07T06:21:04;18.60;82.50
26107;DHT22;13866;50.748;12.630;2023-09-07T06:23:31;18.40;86.50
26107;DHT22;13866;50.748;12.630;2023-09-07T06:25:56;18.60;94.80
26107;DHT22;13866;50.748;12.630;2023-09-07T06:28:22;18.60;88.30
26107;DHT22;13866;50.748;12.630;2023-09-07T06:30:47;18.80;94.40
26107;DHT22;13866;50.748;12.630;2023-09-07T06:33:13;19.00;76.80
26107;DHT22;13866;50.748;12.630;2023-09-07T06:35:39;19.30;70.80
26107;DHT22;13866;50.748;12.630;2023-09-07T06:38:04;19.10;68.10
26107;DHT22;13866;50.748;12.630;2023-09-07T06:40:30;19.10;68.60
26107;DHT22;13866;50.748;12.630;2023-09-07T06:42:56;19.10;75.30
26107;DHT22;13866;50.748;12.630;2023-09-07T06:45:22;19.40;76.60
26107;DHT22;13866;50.748;12.630;2023-09-07T06:47:52;19.80;82.00
26107;DHT22;13866;50.748;12.630;2023-09-07T06:50:17;20.00;72.70
26107;DHT22;13866;50.748;12.630;2023-09-07T06:52:43;20.00;63.30
26107;DHT22;13866;50.748;12.630;2023-09-07T06:55:09;20.00;56.70
26107;DHT22;13866;50.748;12.630;2023-09-07T06:57:34;19.90;61.20
26107;DHT22;13866;50.748;12.630;2023-09-07T07:00:00;20.00;64.10
26107;DHT22;13866;50.748;12.630;2023-09-07T07:02:26;20.00;66.90
26107;DHT22;13866;50.748;12.630;2023-09-07T07:04:51;20.10;70.20
26107;DHT22;13866;50.748;12.630;2023-09-07T07:07:17;20.10;67.30
26107;DHT22;13866;50.748;12.630;2023-09-07T07:09:43;20.50;59.40
26107;DHT22;13866;50.748;12.630;2023-09-07T07:12:09;20.20;62.00
26107;DHT22;13866;50.748;12.630;2023-09-07T07:14:34;20.50;62.90
26107;DHT22;13866;50.748;12.630;2023-09-07T07:17:00;20.40;71.30
26107;DHT22;13866;50.748;12.630;2023-09-07T07:19:28;20.60;71.90
26107;DHT22;13866;50.748;12.630;2023-09-07T07:21:54;20.90;58.20
26107;DHT22;13866;50.748;12.630;2023-09-07T07:24:19;21.20;58.00
26107;DHT22;13866;50.748;12.630;2023-09-07T07:26:45;21.50;57.50
26107;DHT22;13866;50.748;12.630;2023-09-07T07:29:11;21.40;53.20
26107;DHT22;13866;50.748;12.630;2023-09-07T07:31:38;21.60;54.90
26107;DHT22;13866;50.748;12.630;2023-09-07T07:34:03;21.40;56.70
26107;DHT22;13866;50.748;12.630;2023-09-07T07:36:29;21.70;54.30
26107;DHT22;13866;50.748;12.630;2023-09-07T07:38:55;21.70;52.00
26107;DHT22;13866;50.748;12.630;2023-09-07T07:41:20;21.70;51.20
26107;DHT22;13866;50.748;12.630;2023-09-07T07:43:46;22.20;50.10
26107;DHT22;13866;50.748;12.630;2023-09-07T07:46:11;22.20;50.00
26107;DHT22;13866;50.748;12.630;2023-09-07T07:48:41;22.50;46.20
26107;DHT22;13866;50.748;12.630;2023-09-07T07:51:07;22.60;45.10
26107;DHT22;13866;50.748;12.630;2023-09-07T07:53:34;22.70;45.80
26107;DHT22;13866;50.748;12.630;2023-09-07T07:56:00;22.70;45.40
26107;DHT22;13866;50.748;12.630;2023-09-07T07:58:25;22.90;40.60
26107;DHT22;13866;50.748;12.630;2023-09-07T08:00:51;23.00;35.80
26107;DHT22;13866;50.748;12.630;2023-09-07T08:03:16;23.00;35.10
26107;DHT22;13866;50.748;12.630;2023-09-07T08:05:42;23.50;37.50
26107;DHT22;13866;50.748;12.630;2023-09-07T08:08:08;23.20;36.00
26107;DHT22;13866;50.748;12.630;2023-09-07T08:10:35;23.50;36.20
26107;DHT22;13866;50.748;12.630;2023-09-07T08:13:02;23.60;36.20
26107;DHT22;13866;50.748;12.630;2023-09-07T08:15:28;23.80;34.20
26107;DHT22;13866;50.748;12.630;2023-09-07T08:17:54;24.10;35.80
26107;DHT22;13866;50.748;12.630;2023-09-07T08:20:19;24.10;32.20
26107;DHT22;13866;50.748;12.630;2023-09-07T08:22:45;24.00;30.20
26107;DHT22;13866;50.748;12.630;2023-09-07T08:25:12;24.00;32.30
26107;DHT22;13866;50.748;12.630;2023-09-07T08:27:41;24.50;29.90
26107;DHT22;13866;50.748;12.630;2023-09-07T08:30:18;24.90;28.10
26107;DHT22;13866;50.748;12.630;2023-09-07T08:32:45;25.30;27.10
26107;DHT22;13866;50.748;12.630;2023-09-07T08:35:13;25.50;25.60
26107;DHT22;13866;50.748;12.630;2023-09-07T08:37:39;25.50;25.30
26107;DHT22;13866;50.748;12.630;2023-09-07T08:40:05;25.40;24.10
26107;DHT22;13866;50.748;12.630;2023-09-07T08:42:40;25.10;23.70
26107;DHT22;13866;50.748;12.630;2023-09-07T08:45:08;25.00;24.50
26107;DHT22;13866;50.748;12.630;2023-09-07T08:47:37;25.30;25.80
26107;DHT22;13866;50.748;12.630;2023-09-07T08:50:04;25.50;23.20
26107;DHT22;13866;50.748;12.630;2023-09-07T08:52:31;25.50;20.30
26107;DHT22;13866;50.748;12.630;2023-09-07T08:54:57;25.70;22.30
26107;DHT22;13866;50.748;12.630;2023-09-07T08:57:26;25.70;16.10
26107;DHT22;13866;50.748;12.630;2023-09-07T08:59:52;25.80;14.20
26107;DHT22;13866;50.748;12.630;2023-09-07T09:02:18;26.20;15.10
26107;DHT22;13866;50.748;12.630;2023-09-07T09:04:44;26.20;14.20
26107;DHT22;13866;50.748;12.630;2023-09-07T09:07:10;26.40;12.50
26107;DHT22;13866;50.748;12.630;2023-09-07T09:09:35;26.70;12.10
26107;DHT22;13866;50.748;12.630;2023-09-07T09:12:11;26.60;3.70
26107;DHT22;13866;50.748;12.630;2023-09-07T09:14:37;26.30;4.00
26107;DHT22;13866;50.748;12.630;2023-09-07T09:17:02;26.30;3.40
26107;DHT22;13866;50.748;12.630;2023-09-07T09:19:35;26.50;2.60
26107;DHT22;13866;50.748;12.630;2023-09-07T09:22:01;26.50;1.90
26107;DHT22;13866;50.748;12.630;2023-09-07T09:24:32;26.80;1.00
26107;DHT22;13866;50.748;12.630;2023-09-07T09:26:58;27.00;1.00
26107;DHT22;13866;50.748;12.630;2023-09-07T09:29:23;26.40;1.00
26107;DHT22;13866;50.748;12.630;2023-09-07T09:31:49;26.40;1.00
26107;DHT22;13866;50.748;12.630;2023-09-07T09:34:15;26.60;1.00
26107;DHT22;13866;50.748;12.630;2023-09-07T09:36:42;27.00;1.00
26107;DHT22;13866;50.748;12.630;2023-09-07T09:39:07;27.20;1.00
26107;DHT22;13866;50.748;12.630;2023-09-07T09:41:35;26.60;1.00
26107;DHT22;13866;50.748;12.630;2023-09-07T09:44:03;27.10;1.00
26107;DHT22;13866;50.748;12.630;2023-09-07T09:46:29;27.00;1.00
26107;DHT22;13866;50.748;12.630;2023-09-07T09:48:57;27.10;1.00
26107;DHT22;13866;50.748;12.630;2023-09-07T09:51:24;27.50;1.00
26107;DHT22;13866;50.748;12.630;2023-09-07T09:53:50;27.30;1.00
26107;DHT22;13866;50.748;12.630;2023-09-07T09:56:16;27.60;1.00
26107;DHT22;13866;50.748;12.630;2023-09-07T09:58:42;27.60;1.00
26107;DHT22;13866;50.748;12.630;2023-09-07T10:01:09;28.00;1.00
26107;DHT22;13866;50.748;12.630;2023-09-07T10:03:46;28.30;1.00
26107;DHT22;13866;50.748;12.630;2023-09-07T10:06:18;27.70;1.00
26107;DHT22;13866;50.748;12.630;2023-09-07T10:09:04;27.50;1.00
26107;DHT22;13866;50.748;12.630;2023-09-07T10:11:39;27.90;1.00
26107;DHT22;13866;50.748;12.630;2023-09-07T10:14:06;28.00;1.00
26107;DHT22;13866;50.748;12.630;2023-09-07T10:16:50;28.10;1.00
26107;DHT22;13866;50.748;12.630;2023-09-07T10:19:22;27.80;1.00
26107;DHT22;13866;50.748;12.630;2023-09-07T10:21:49;27.10;1.00
26107;DHT22;13866;50.748;12.630;2023-09-07T10:27:05;27.50;1.00
26107;DHT22;13866;50.748;12.630;2023-09-07T10:29:50;28.00;1.00
26107;DHT22;13866;50.748;12.630;2023-09-07T10:32:18;27.80;1.00
26107;DHT22;13866;50.748;12.630;2023-09-07T10:34:43;28.10;1.00
26107;DHT22;13866;50.748;12.630;2023-09-07T10:37:11;28.30;1.00
26107;DHT22;13866;50.748;12.630;2023-09-07T10:39:39;28.30;1.00
26107;DHT22;13866;50.748;12.630;2023-09-07T10:42:05;28.30;1.00
26107;DHT22;13866;50.748;12.630;2023-09-07T10:44:30;28.10;1.00
26107;DHT22;13866;50.748;12.630;2023-09-07T10:46:59;28.10;1.00
26107;DHT22;13866;50.748;12.630;2023-09-07T10:49:25;28.00;1.00
26107;DHT22;13866;50.748;12.630;2023-09-07T10:51:51;27.70;1.00
26107;DHT22;13866;50.748;12.630;2023-09-07T10:54:18;27.90;1.00
26107;DHT22;13866;50.748;12.630;2023-09-07T10:56:45;27.70;1.00
26107;DHT22;13866;50.748;12.630;2023-09-07T10:59:12;28.30;1.00
26107;DHT22;13866;50.748;12.630;2023-09-07T11:01:38;28.50;1.00
26107;DHT22;13866;50.748;12.630;2023-09-07T11:04:04;28.60;1.00
26107;DHT22;13866;50.748;12.630;2023-09-07T11:06:30;28.40;1.00
26107;DHT22;13866;50.748;12.630;2023-09-07T11:08:59;28.70;1.00
26107;DHT22;13866;50.748;12.630;2023-09-07T11:11:25;28.50;1.00
26107;DHT22;13866;50.748;12.630;2023-09-07T11:13:51;28.70;1.00
26107;DHT22;13866;50.748;12.630;2023-09-07T11:16:17;28.70;1.00
26107;DHT22;13866;50.748;12.630;2023-09-07T11:18:42;28.80;1.00
26107;DHT22;13866;50.748;12.630;2023-09-07T11:21:09;28.80;1.00
26107;DHT22;13866;50.748;12.630;2023-09-07T11:23:35;28.40;1.00
26107;DHT22;13866;50.748;12.630;2023-09-07T11:26:08;28.40;1.00
26107;DHT22;13866;50.748;12.630;2023-09-07T11:28:33;29.10;1.00
26107;DHT22;13866;50.748;12.630;2023-09-07T11:30:59;29.60;1.00
26107;DHT22;13866;50.748;12.630;2023-09-07T11:33:26;29.70;1.00
26107;DHT22;13866;50.748;12.630;2023-09-07T11:35:52;29.50;1.00
26107;DHT22;13866;50.748;12.630;2023-09-07T11:38:21;29.40;1.00
26107;DHT22;13866;50.748;12.630;2023-09-07T11:40:47;29.80;1.00
26107;DHT22;13866;50.748;12.630;2023-09-07T11:43:17;30.20;1.00
26107;DHT22;13866;50.748;12.630;2023-09-07T11:45:46;29.30;1.00
26107;DHT22;13866;50.748;12.630;2023-09-07T11:48:12;29.80;1.00
26107;DHT22;13866;50.748;12.630;2023-09-07T11:50:39;30.00;1.00
26107;DHT22;13866;50.748;12.630;2023-09-07T11:53:06;29.70;1.00
26107;DHT22;13866;50.748;12.630;2023-09-07T11:55:32;29.20;1.00
26107;DHT22;13866;50.748;12.630;2023-09-07T11:57:57;29.70;1.00
26107;DHT22;13866;50.748;12.630;2023-09-07T12:00:23;29.70;1.00
26107;DHT22;13866;50.748;12.630;2023-09-07T12:02:49;29.20;1.00
26107;DHT22;13866;50.748;12.630;2023-09-07T12:05:15;29.30;1.00
26107;DHT22;13866;50.748;12.630;2023-09-07T12:07:41;29.50;1.00
26107;DHT22;13866;50.748;12.630;2023-09-07T12:10:10;29.80;1.00
26107;DHT22;13866;50.748;12.630;2023-09-07T12:12:37;29.60;1.00
26107;DHT22;13866;50.748;12.630;2023-09-07T12:15:03;29.60;1.00
26107;DHT22;13866;50.748;12.630;2023-09-07T12:17:30;30.00;1.00
26107;DHT22;13866;50.748;12.630;2023-09-07T12:19:55;29.30;1.00
26107;DHT22;13866;50.748;12.630;2023-09-07T12:22:21;29.10;1.00
26107;DHT22;13866;50.748;12.630;2023-09-07T12:24:46;29.10;1.00
26107;DHT22;13866;50.748;12.630;2023-09-07T12:27:12;29.10;1.00
26107;DHT22;13866;50.748;12.630;2023-09-07T12:29:37;29.00;1.00
26107;DHT22;13866;50.748;12.630;2023-09-07T12:32:03;29.40;1.00
26107;DHT22;13866;50.748;12.630;2023-09-07T12:34:29;28.90;1.00
26107;DHT22;13866;50.748;12.630;2023-09-07T12:36:54;28.70;1.00
26107;DHT22;13866;50.748;12.630;2023-09-07T12:39:20;29.00;1.00
26107;DHT22;13866;50.748;12.630;2023-09-07T12:41:46;28.70;1.00
26107;DHT22;13866;50.748;12.630;2023-09-07T12:44:11;29.10;1.00
26107;DHT22;13866;50.748;12.630;2023-09-07T12:46:38;29.00;1.00
26107;DHT22;13866;50.748;12.630;2023-09-07T12:49:03;28.50;1.00
26107;DHT22;13866;50.748;12.630;2023-09-07T12:51:29;28.80;1.00
26107;DHT22;13866;50.748;12.630;2023-09-07T12:53:55;28.90;1.00
26107;DHT22;13866;50.748;12.630;2023-09-07T12:56:21;28.80;1.00
26107;DHT22;13866;50.748;12.630;2023-09-07T12:58:47;29.30;1.00
26107;DHT22;13866;50.748;12.630;2023-09-07T13:01:12;29.60;1.00
26107;DHT22;13866;50.748;12.630;2023-09-07T13:03:40;29.80;1.00
26107;DHT22;13866;50.748;12.630;2023-09-07T13:06:06;29.40;1.00
26107;DHT22;13866;50.748;12.630;2023-09-07T13:08:32;29.00;1.00
26107;DHT22;13866;50.748;12.630;2023-09-07T13:10:57;29.50;1.00
26107;DHT22;13866;50.748;12.630;2023-09-07T13:13:23;29.00;1.00
26107;DHT22;13866;50.748;12.630;2023-09-07T13:15:51;29.10;1.00
26107;DHT22;13866;50.748;12.630;2023-09-07T13:18:17;29.30;1.00
26107;DHT22;13866;50.748;12.630;2023-09-07T13:20:42;29.20;1.00
26107;DHT22;13866;50.748;12.630;2023-09-07T13:23:08;29.00;1.00
26107;DHT22;13866;50.748;12.630;2023-09-07T13:25:33;29.00;1.00
26107;DHT22;13866;50.748;12.630;2023-09-07T13:27:59;28.90;1.00
26107;DHT22;13866;50.748;12.630;2023-09-07T13:30:24;28.90;1.00
26107;DHT22;13866;50.748;12.630;2023-09-07T13:32:50;28.70;1.00
26107;DHT22;13866;50.748;12.630;2023-09-07T13:35:16;28.60;1.00
26107;DHT22;13866;50.748;12.630;2023-09-07T13:37:41;28.50;1.00
26107;DHT22;13866;50.748;12.630;2023-09-07T13:40:07;28.70;1.00
26107;DHT22;13866;50.748;12.630;2023-09-07T13:42:33;29.00;1.00
26107;DHT22;13866;50.748;12.630;2023-09-07T13:44:59;28.80;1.00
26107;DHT22;13866;50.748;12.630;2023-09-07T13:47:24;28.50;1.00
26107;DHT22;13866;50.748;12.630;2023-09-07T13:49:50;28.60;1.00
26107;DHT22;13866;50.748;12.630;2023-09-07T13:52:16;28.70;1.00
26107;DHT22;13866;50.748;12.630;2023-09-07T13:54:41;28.60;1.00
26107;DHT22;13866;50.748;12.630;2023-09-07T13:57:07;28.70;1.00
26107;DHT22;13866;50.748;12.630;2023-09-07T13:59:34;29.00;1.00
26107;DHT22;13866;50.748;12.630;2023-09-07T14:02:00;29.00;1.00
26107;DHT22;13866;50.748;12.630;2023-09-07T14:04:26;29.00;1.00
26107;DHT22;13866;50.748;12.630;2023-09-07T14:06:52;28.90;1.00
26107;DHT22;13866;50.748;12.630;2023-09-07T14:09:18;28.90;1.00
26107;DHT22;13866;50.748;12.630;2023-09-07T14:11:44;28.60;1.00
26107;DHT22;13866;50.748;12.630;2023-09-07T14:14:10;28.30;1.00
26107;DHT22;13866;50.748;12.630;2023-09-07T14:16:36;28.10;1.00
26107;DHT22;13866;50.748;12.630;2023-09-07T14:19:02;28.40;1.00
26107;DHT22;13866;50.748;12.630;2023-09-07T14:21:27;28.10;1.00
26107;DHT22;13866;50.748;12.630;2023-09-07T14:23:53;28.20;1.00
26107;DHT22;13866;50.748;12.630;2023-09-07T14:26:18;28.40;1.00
26107;DHT22;13866;50.748;12.630;2023-09-07T14:28:44;28.20;1.00
26107;DHT22;13866;50.748;12.630;2023-09-07T14:31:09;28.30;1.00
26107;DHT22;13866;50.748;12.630;2023-09-07T14:33:35;28.20;1.00
26107;DHT22;13866;50.748;12.630;2023-09-07T14:36:06;28.20;1.00
26107;DHT22;13866;50.748;12.630;2023-09-07T14:38:32;28.30;1.00
26107;DHT22;13866;50.748;12.630;2023-09-07T14:41:00;28.20;1.00
26107;DHT22;13866;50.748;12.630;2023-09-07T14:43:26;28.00;1.00
26107;DHT22;13866;50.748;12.630;2023-09-07T14:45:51;28.10;1.00
26107;DHT22;13866;50.748;12.630;2023-09-07T14:48:17;28.30;1.00
26107;DHT22;13866;50.748;12.630;2023-09-07T14:50:42;28.20;1.00
26107;DHT22;13866;50.748;12.630;2023-09-07T14:53:08;28.20;1.00
26107;DHT22;13866;50.748;12.630;2023-09-07T14:55:33;28.00;1.00
26107;DHT22;13866;50.748;12.630;2023-09-07T14:57:59;28.00;1.00
26107;DHT22;13866;50.748;12.630;2023-09-07T15:00:24;27.90;1.00
26107;DHT22;13866;50.748;12.630;2023-09-07T15:02:52;28.10;1.00
26107;DHT22;13866;50.748;12.630;2023-09-07T15:05:18;28.10;1.00
26107;DHT22;13866;50.748;12.630;2023-09-07T15:07:43;28.00;1.00
26107;DHT22;13866;50.748;12.630;2023-09-07T15:10:09;28.00;1.00
26107;DHT22;13866;50.748;12.630;2023-09-07T15:12:34;27.90;1.00
26107;DHT22;13866;50.748;12.630;2023-09-07T15:15:00;27.70;1.00
26107;DHT22;13866;50.748;12.630;2023-09-07T15:17:27;27.70;1.00
26107;DHT22;13866;50.748;12.630;2023-09-07T15:19:52;27.70;1.00